Bapchule, Arizona
Current Conditions -  °F | °C
As of 8:47 PM on Wednesday 17 Dec 2014 (Local Time) from KCHD Reporting Station
Broken Clouds Broken Clouds  
Wind Chill: 55°   Ceiling: 5000
Heat Index: 55°   Visibility: 15mi
Dew Point: 50°   Wind: 5mph
Humidity: 82%   Direction: NA
Pressure: 30.12"   Gusts: NA
Location:  33.14°N, 111.87°W
Report Text: KCHD 180347Z VRB04KT 15SM BKN050 13/10 A3012 RMK LAST
Loading
Personal Weather Stations






























Interactive Weather Map New forecast layout! Learn more

10-Day Weather Forecast

Advertisements
Track Severe Weather on mobile